createdAt,value
2023-03-22T00:01:46.529Z,10.02
2023-03-22T00:04:13.203Z,10.23
2023-03-22T00:06:40.017Z,10.13
2023-03-22T00:09:06.544Z,11.20
2023-03-22T00:11:33.033Z,10.00
2023-03-22T00:13:59.731Z,10.50
2023-03-22T00:16:26.721Z,10.90
2023-03-22T00:18:53.339Z,11.27
2023-03-22T00:21:20.090Z,10.80
2023-03-22T00:23:46.680Z,10.95
2023-03-22T00:26:14.405Z,10.23
2023-03-22T00:28:41.685Z,10.60
2023-03-22T00:31:09.236Z,10.00
2023-03-22T00:33:36.473Z,9.35
2023-03-22T00:36:11.429Z,9.93
2023-03-22T00:38:42.799Z,9.15
2023-03-22T00:41:14.098Z,9.85
2023-03-22T00:43:41.152Z,9.43
2023-03-22T00:48:34.599Z,9.98
2023-03-22T00:51:01.177Z,9.48
2023-03-22T00:53:29.183Z,10.00
2023-03-22T00:55:56.820Z,9.90
2023-03-22T00:58:23.411Z,9.55
2023-03-22T01:00:50.468Z,9.95
2023-03-22T01:05:47.007Z,9.40
2023-03-22T01:08:14.958Z,9.75
2023-03-22T01:10:42.632Z,9.13
2023-03-22T01:13:10.918Z,9.40
2023-03-22T01:15:38.060Z,9.90
2023-03-22T01:18:04.802Z,10.00
2023-03-22T01:20:32.023Z,9.10
2023-03-22T01:22:58.595Z,9.77
2023-03-22T01:25:25.265Z,10.15
2023-03-22T01:27:52.563Z,8.25
2023-03-22T01:30:19.311Z,8.95
2023-03-22T01:32:46.022Z,8.52
2023-03-22T01:35:12.494Z,8.70
2023-03-22T01:37:39.046Z,8.30
2023-03-22T01:40:06.655Z,8.88
2023-03-22T01:42:33.348Z,8.73
2023-03-22T01:45:27.232Z,8.45
2023-03-22T01:48:02.382Z,8.35
2023-03-22T01:50:30.231Z,9.50
2023-03-22T01:52:57.795Z,8.27
2023-03-22T01:55:26.111Z,8.23
2023-03-22T01:57:53.825Z,8.55
2023-03-22T02:00:21.155Z,8.23
2023-03-22T02:02:50.615Z,7.88
2023-03-22T02:05:17.744Z,8.00
2023-03-22T02:07:44.862Z,7.35
2023-03-22T02:10:17.710Z,7.50
2023-03-22T02:13:24.650Z,8.20
2023-03-22T02:16:00.120Z,7.53
2023-03-22T02:18:44.619Z,7.18
2023-03-22T02:21:35.725Z,7.60
2023-03-22T02:24:17.551Z,7.35
2023-03-22T02:27:29.327Z,7.55
2023-03-22T02:30:23.579Z,7.70
2023-03-22T02:33:02.341Z,7.65
2023-03-22T02:35:43.430Z,8.27
2023-03-22T02:38:34.823Z,7.63
2023-03-22T02:41:08.226Z,7.57
2023-03-22T02:43:42.082Z,8.00
2023-03-22T02:46:31.770Z,7.50
2023-03-22T02:49:46.008Z,7.78
2023-03-22T02:52:19.058Z,7.78
2023-03-22T02:54:51.479Z,7.40
2023-03-22T02:57:43.450Z,7.03
2023-03-22T03:00:13.994Z,7.47
2023-03-22T03:02:52.803Z,7.28
2023-03-22T03:05:21.074Z,7.43
2023-03-22T03:07:56.356Z,6.70
2023-03-22T03:10:23.773Z,7.00
2023-03-22T03:12:50.539Z,7.13
2023-03-22T03:15:20.133Z,7.53
2023-03-22T03:18:13.833Z,6.90
2023-03-22T03:20:52.353Z,6.70
2023-03-22T03:23:55.512Z,7.45
2023-03-22T03:26:41.077Z,6.57
2023-03-22T03:29:22.642Z,7.70
2023-03-22T03:32:16.851Z,6.60
2023-03-22T03:34:51.319Z,6.25
2023-03-22T03:37:22.849Z,6.68
2023-03-22T03:40:09.840Z,6.22
2023-03-22T03:42:46.015Z,6.55
2023-03-22T03:45:14.427Z,6.28
2023-03-22T03:47:43.418Z,6.40
2023-03-22T03:50:12.861Z,6.63
2023-03-22T03:52:39.313Z,7.10
2023-03-22T03:55:06.265Z,6.15
2023-03-22T03:59:59.309Z,6.55
2023-03-22T04:02:26.011Z,6.30
2023-03-22T04:04:52.468Z,6.50
2023-03-22T04:07:19.041Z,5.90
2023-03-22T04:09:45.639Z,6.53
2023-03-22T04:12:12.233Z,6.25
2023-03-22T04:14:38.741Z,8.23
2023-03-22T04:17:05.311Z,7.60
2023-03-22T04:19:32.547Z,7.03
2023-03-22T04:22:00.251Z,7.95
2023-03-22T04:24:27.133Z,7.82
2023-03-22T04:26:53.841Z,7.65
2023-03-22T04:29:22.115Z,7.07
2023-03-22T04:31:48.668Z,6.10
2023-03-22T04:34:15.145Z,7.00
2023-03-22T04:36:41.880Z,5.63
2023-03-22T04:39:11.256Z,5.35
2023-03-22T04:41:37.831Z,5.85
2023-03-22T04:44:05.793Z,5.85
2023-03-22T04:46:37.202Z,7.15
2023-03-22T04:49:07.073Z,6.97
2023-03-22T04:51:33.587Z,6.70
2023-03-22T04:54:00.655Z,6.47
2023-03-22T04:58:53.672Z,6.00
2023-03-22T05:01:20.727Z,5.88
2023-03-22T05:03:47.635Z,7.35
2023-03-22T05:06:14.770Z,6.68
2023-03-22T05:11:12.378Z,6.85
2023-03-22T05:13:39.563Z,7.22
2023-03-22T05:16:06.795Z,6.35
2023-03-22T05:18:33.577Z,6.50
2023-03-22T05:21:06.688Z,7.13
2023-03-22T05:23:33.243Z,7.22
2023-03-22T05:26:01.672Z,6.80
2023-03-22T05:28:28.586Z,6.55
2023-03-22T05:33:23.913Z,7.10
2023-03-22T05:35:51.231Z,6.10
2023-03-22T05:38:18.263Z,8.15
2023-03-22T05:40:45.515Z,7.93
2023-03-22T05:43:12.438Z,7.45
2023-03-22T05:45:38.966Z,6.88
2023-03-22T05:48:06.131Z,6.95
2023-03-22T05:50:33.131Z,8.02
2023-03-22T05:53:00.031Z,7.30
2023-03-22T05:55:27.524Z,7.13
2023-03-22T05:57:54.819Z,7.60
2023-03-22T06:00:21.912Z,6.75
2023-03-22T06:05:17.473Z,7.50
2023-03-22T06:07:44.773Z,8.15
2023-03-22T06:10:13.446Z,6.78
2023-03-22T06:12:40.313Z,8.10
2023-03-22T06:15:08.239Z,8.00
2023-03-22T06:17:34.951Z,6.97
2023-03-22T06:20:01.521Z,7.20
2023-03-22T06:22:30.551Z,7.05
2023-03-22T06:24:57.065Z,6.65
2023-03-22T06:27:23.553Z,6.72
2023-03-22T06:29:51.061Z,6.65
2023-03-22T06:32:17.950Z,6.22
2023-03-22T06:34:44.589Z,6.40
2023-03-22T06:37:11.139Z,6.95
2023-03-22T06:39:37.593Z,7.18
2023-03-22T06:42:04.118Z,6.38
2023-03-22T06:44:30.866Z,6.78
2023-03-22T06:46:57.389Z,7.43
2023-03-22T06:49:24.170Z,5.97
2023-03-22T06:51:50.730Z,6.45
2023-03-22T06:54:17.352Z,6.10
2023-03-22T06:56:43.922Z,5.97
2023-03-22T06:59:10.587Z,5.63
2023-03-22T07:01:37.171Z,5.78
2023-03-22T07:04:04.124Z,5.80
2023-03-22T07:06:32.702Z,6.75
2023-03-22T07:08:59.657Z,5.00
2023-03-22T07:11:26.519Z,6.07
2023-03-22T07:13:54.670Z,5.70
2023-03-22T07:16:22.116Z,6.95
2023-03-22T07:18:49.146Z,5.90
2023-03-22T07:26:09.085Z,6.10
2023-03-22T07:28:35.828Z,5.30
2023-03-22T07:31:05.018Z,5.75
2023-03-22T07:33:31.661Z,6.10
2023-03-22T07:35:58.242Z,6.47
2023-03-22T07:38:24.873Z,5.97
2023-03-22T07:40:54.990Z,6.40
2023-03-22T07:43:22.988Z,6.05
2023-03-22T07:45:50.610Z,5.55
2023-03-22T07:48:18.409Z,7.10
2023-03-22T07:50:45.652Z,6.32
2023-03-22T07:53:12.560Z,6.28
2023-03-22T07:55:39.962Z,6.05
2023-03-22T07:58:06.593Z,5.78
2023-03-22T08:00:33.129Z,6.25
2023-03-22T08:03:01.011Z,6.15
2023-03-22T08:05:27.623Z,6.20
2023-03-22T08:07:54.484Z,6.10
2023-03-22T08:10:21.084Z,5.65
2023-03-22T08:12:47.562Z,6.00
2023-03-22T08:15:14.175Z,6.30
2023-03-22T08:17:40.730Z,6.82
2023-03-22T08:20:09.158Z,6.93
2023-03-22T08:22:36.666Z,6.65
2023-03-22T08:25:04.817Z,6.38
2023-03-22T08:27:31.789Z,5.95
2023-03-22T08:32:26.210Z,6.82
2023-03-22T08:34:52.871Z,7.22
2023-03-22T08:37:20.435Z,6.68
2023-03-22T08:39:47.405Z,6.38
2023-03-22T08:44:40.266Z,5.68
2023-03-22T08:47:07.546Z,6.00
2023-03-22T08:49:34.151Z,5.68
2023-03-22T08:52:00.838Z,6.10
2023-03-22T08:54:33.528Z,5.65
2023-03-22T08:57:00.728Z,6.65
2023-03-22T08:59:27.462Z,5.80
2023-03-22T09:01:54.071Z,5.85
2023-03-22T09:04:20.759Z,5.35
2023-03-22T09:06:47.282Z,5.28
2023-03-22T09:09:13.977Z,4.63
2023-03-22T09:11:42.637Z,5.28
2023-03-22T09:14:10.981Z,4.05
2023-03-22T09:16:37.647Z,4.07
2023-03-22T09:19:04.433Z,4.05
2023-03-22T09:21:31.053Z,4.32
2023-03-22T09:23:57.667Z,4.05
2023-03-22T09:26:25.623Z,4.45
2023-03-22T09:28:52.307Z,4.35
2023-03-22T09:31:20.535Z,3.78
2023-03-22T09:33:47.365Z,3.83
2023-03-22T09:36:13.914Z,3.95
2023-03-22T09:38:42.116Z,3.58
2023-03-22T09:41:15.595Z,3.35
2023-03-22T09:43:50.994Z,3.67
2023-03-22T09:46:39.270Z,2.75
2023-03-22T09:49:14.867Z,3.13
2023-03-22T09:51:44.811Z,2.55
2023-03-22T09:54:15.033Z,2.88
2023-03-22T09:56:43.406Z,2.90
2023-03-22T09:59:17.894Z,2.55
2023-03-22T10:02:00.971Z,2.28
2023-03-22T10:04:33.426Z,2.17
2023-03-22T10:07:13.945Z,2.17
2023-03-22T10:09:54.837Z,2.58
2023-03-22T10:12:29.160Z,2.45
2023-03-22T10:15:19.613Z,1.60
2023-03-22T10:17:52.560Z,2.08
2023-03-22T10:20:28.648Z,1.77
2023-03-22T10:23:01.181Z,2.15
2023-03-22T10:25:36.599Z,1.88
2023-03-22T10:28:14.105Z,1.48
2023-03-22T10:30:42.926Z,2.22
2023-03-22T10:33:19.049Z,1.85
2023-03-22T10:35:46.469Z,1.65
2023-03-22T10:38:21.375Z,2.03
2023-03-22T10:40:49.442Z,1.90
2023-03-22T10:43:23.641Z,2.00
2023-03-22T10:45:52.757Z,2.17
2023-03-22T10:48:25.421Z,2.17
2023-03-22T10:50:52.227Z,1.90
2023-03-22T10:53:38.733Z,2.00
2023-03-22T10:56:11.306Z,2.60
2023-03-22T10:58:37.833Z,1.85
2023-03-22T11:01:13.267Z,1.70
2023-03-22T11:03:41.620Z,1.55
2023-03-22T11:06:38.156Z,1.63
2023-03-22T11:09:20.345Z,2.25
2023-03-22T11:11:56.252Z,1.42
2023-03-22T11:14:36.089Z,1.73
2023-03-22T11:17:09.123Z,1.65
2023-03-22T11:20:01.315Z,1.40
2023-03-22T11:22:38.022Z,2.00
2023-03-22T11:27:34.653Z,1.50
2023-03-22T11:30:20.354Z,1.42
2023-03-22T11:32:47.438Z,1.83
2023-03-22T11:35:15.959Z,2.17
2023-03-22T11:37:48.530Z,1.70
2023-03-22T11:40:19.192Z,4.07
2023-03-22T11:42:47.586Z,1.58
2023-03-22T11:45:27.273Z,1.27
2023-03-22T11:47:54.790Z,0.90
2023-03-22T11:50:42.356Z,1.98
2023-03-22T11:53:17.025Z,1.60
2023-03-22T11:55:45.308Z,2.22
2023-03-22T11:58:27.138Z,1.20
2023-03-22T12:00:58.567Z,0.90
2023-03-22T12:03:31.279Z,1.00
2023-03-22T12:06:01.645Z,0.70
2023-03-22T12:08:49.637Z,0.80
2023-03-22T12:11:24.856Z,0.73
2023-03-22T12:14:05.009Z,0.90
2023-03-22T12:16:40.857Z,0.93
2023-03-22T12:19:23.607Z,2.65
2023-03-22T12:21:51.679Z,1.10
2023-03-22T12:24:32.285Z,1.30
2023-03-22T12:27:04.738Z,1.10
2023-03-22T12:29:32.109Z,1.10
2023-03-22T12:32:04.070Z,0.85
2023-03-22T12:34:41.770Z,0.85
2023-03-22T12:37:15.442Z,0.93
2023-03-22T12:40:00.695Z,0.70
2023-03-22T12:42:52.372Z,0.70
2023-03-22T12:45:24.888Z,0.98
2023-03-22T12:48:13.844Z,1.20
2023-03-22T12:50:47.242Z,1.58
2023-03-22T12:53:17.734Z,0.90
2023-03-22T12:55:46.214Z,1.10
2023-03-22T12:58:18.378Z,1.95
2023-03-22T13:00:51.354Z,4.93
2023-03-22T13:03:18.289Z,0.90
2023-03-22T13:05:46.790Z,0.90
2023-03-22T13:08:13.545Z,1.15
2023-03-22T13:13:32.016Z,1.60
2023-03-22T13:16:09.826Z,2.30
2023-03-22T13:18:36.466Z,1.38
2023-03-22T13:21:16.650Z,1.00
2023-03-22T13:24:13.441Z,0.90
2023-03-22T13:26:47.828Z,1.23
2023-03-22T13:29:36.537Z,1.00
2023-03-22T13:32:30.886Z,1.10
2023-03-22T13:34:57.597Z,1.27
2023-03-22T13:37:47.081Z,1.00
2023-03-22T13:40:23.020Z,1.38
2023-03-22T13:42:51.330Z,0.85
2023-03-22T13:45:56.655Z,1.17
2023-03-22T13:48:39.991Z,1.10
2023-03-22T13:51:14.224Z,0.90
2023-03-22T13:53:46.220Z,1.55
2023-03-22T13:56:13.578Z,1.83
2023-03-22T13:58:41.260Z,1.10
2023-03-22T14:01:15.708Z,1.15
2023-03-22T14:03:47.453Z,0.80
2023-03-22T14:06:31.860Z,1.45
2023-03-22T14:09:09.418Z,1.35
2023-03-22T14:11:43.931Z,1.35
2023-03-22T14:14:19.334Z,1.10
2023-03-22T14:17:00.300Z,1.30
2023-03-22T14:19:31.766Z,1.35
